Reno, NV

8:45 PM PDT on September 21, 2014 (GMT -0700)
MidTown | Change Station
CLOSE
Current Station
Personal Weather Station
Location: Reno, NV
Elevation: 4491 ft
Nearby Weather Stations
Active Advisory: Dense Smoke Advisory

Elev 4491 ft 39.52 °N, 119.81 °W | Updated 59 seconds ago

Partly Cloudy
Partly Cloudy
66.6 °F
Feels Like 66.6 °F
N
-
Wind Variable Wind from North

Today
High -- | Low -- °F
--% Chance of Precip.
Yesterday
High -- | Low -- °F
Precip. -- in
6:46 AM 6:57 PM
Waning Crescent, 4% visible
Pressure 29.96 in
Visibility 7.0 miles
Clouds Scattered Clouds 17000 ft
Scattered Clouds 22000 ft
Dew Point 43 °F
Humidity 42%
Rainfall 0.00 in
Snow Depth 0 in , 0 in , 0 in
UV 0 out of 12
Pollen 6.20 out of 12
Air Quality Not available.
Flu Activity Not available.
METAR KRNO 220255Z 30010G18KT 7SM SCT170 SCT220 21/07 A3010 RMK AO2 SLP145 FU ALQDS T02110067 53009

More Conditions Fewer Conditions

Pressure 29.96 in
Visibility 7.0 miles
Clouds Scattered Clouds 17000 ft
Scattered Clouds 22000 ft
Dew Point 43 °F
Humidity 42%
Rainfall 0.00 in
Snow Depth 0 in , 0 in , 0 in
UV 0 out of 12
Pollen 6.20 out of 12
Air Quality Not available.
Flu Activity Not available.
METAR KRNO 220255Z 30010G18KT 7SM SCT170 SCT220 21/07 A3010 RMK AO2 SLP145 FU ALQDS T02110067 53009

More Conditions Fewer Conditions

10-Day Weather Forecast

Almanac

Astronomy

Sep. 21, 2014 Rise Set
Actual Time 6:46 AM PDT 6:57 PM PDT
Civil Twilight 6:19 AM PDT 7:24 PM PDT
Nautical Twilight 5:47 AM PDT 7:56 PM PDT
Astronomical Twilight 5:15 AM PDT 8:27 PM PDT
Moon 4:24 AM PDT (9/21) 5:36 PM PDT (9/21)
Length of Visible Light 13h 05m
Length of Day
12h 11m
Tomorrow will be 2m 34s shorter.
Waning Crescent, 4% of the Moon is Illuminated
Today
Waning Crescent
Sep 24
New
Oct 1
First Quarter
Oct 8
Full
Oct 15
Last Quarter

Today's Extremes

State Highs State Lows

Community

WunderPhotos

Upload Photos

1,755,382 photos uploaded!

WunderBlogs® & News

Nearby

Snow Depth

Station Depth Elevation
Green Mountain 0 in 8000 ft
Disaster Peak 0 in 6500 ft
Lewis Peak 0 in 7400 ft
Jacks Peak 3 in 8420 ft
Jack Creek Upper 0 in 7250 ft

Earthquake Activity

City Distance Mag. Time & Date
Gabbs, Nevada 98 miles 3.3 4:37 AM PDT
2014-09-19
Livermore, California 164 miles 2.6 3:37 AM PDT
2014-09-19
Minimum magnitude displayed is 2.5.

Coastal Water Temperatures

Place Temperature
No Stations Reporting

Nearby Weather Stations